sensor_id;sensor_type;location;lat;lon;timestamp;P1;durP1;ratioP1;P2;durP2;ratioP2
21014;SDS011;19207;-23.482;-46.500;2023-05-10T00:01:28;25.05;;;11.75;;
21014;SDS011;19207;-23.482;-46.500;2023-05-10T00:04:15;26.10;;;10.48;;
21014;SDS011;19207;-23.482;-46.500;2023-05-10T00:07:02;27.95;;;12.15;;
21014;SDS011;19207;-23.482;-46.500;2023-05-10T00:09:50;22.60;;;9.20;;
21014;SDS011;19207;-23.482;-46.500;2023-05-10T00:12:37;25.80;;;10.07;;
21014;SDS011;19207;-23.482;-46.500;2023-05-10T00:15:23;17.87;;;9.25;;
21014;SDS011;19207;-23.482;-46.500;2023-05-10T00:18:10;26.15;;;10.02;;
21014;SDS011;19207;-23.482;-46.500;2023-05-10T00:20:57;17.80;;;8.75;;
21014;SDS011;19207;-23.482;-46.500;2023-05-10T00:23:44;20.95;;;9.18;;
21014;SDS011;19207;-23.482;-46.500;2023-05-10T00:26:31;26.05;;;9.30;;
21014;SDS011;19207;-23.482;-46.500;2023-05-10T00:29:18;23.27;;;9.85;;
21014;SDS011;19207;-23.482;-46.500;2023-05-10T00:32:05;20.08;;;8.90;;
21014;SDS011;19207;-23.482;-46.500;2023-05-10T00:34:52;22.30;;;10.35;;
21014;SDS011;19207;-23.482;-46.500;2023-05-10T00:37:39;26.85;;;10.07;;
21014;SDS011;19207;-23.482;-46.500;2023-05-10T00:40:26;23.95;;;10.75;;
21014;SDS011;19207;-23.482;-46.500;2023-05-10T00:43:13;22.25;;;10.40;;
21014;SDS011;19207;-23.482;-46.500;2023-05-10T00:46:00;23.83;;;10.70;;
21014;SDS011;19207;-23.482;-46.500;2023-05-10T00:48:47;26.60;;;13.45;;
21014;SDS011;19207;-23.482;-46.500;2023-05-10T00:51:35;21.37;;;10.10;;
21014;SDS011;19207;-23.482;-46.500;2023-05-10T00:54:22;17.50;;;9.50;;
21014;SDS011;19207;-23.482;-46.500;2023-05-10T00:57:08;17.02;;;8.43;;
21014;SDS011;19207;-23.482;-46.500;2023-05-10T00:59:56;15.30;;;7.50;;
21014;SDS011;19207;-23.482;-46.500;2023-05-10T01:02:47;12.50;;;7.53;;
21014;SDS011;19207;-23.482;-46.500;2023-05-10T01:05:34;14.00;;;7.25;;
21014;SDS011;19207;-23.482;-46.500;2023-05-10T01:08:21;15.45;;;8.05;;
21014;SDS011;19207;-23.482;-46.500;2023-05-10T01:11:09;16.83;;;8.05;;
21014;SDS011;19207;-23.482;-46.500;2023-05-10T01:13:56;14.93;;;7.95;;
21014;SDS011;19207;-23.482;-46.500;2023-05-10T01:16:44;18.55;;;9.00;;
21014;SDS011;19207;-23.482;-46.500;2023-05-10T01:19:31;18.55;;;9.48;;
21014;SDS011;19207;-23.482;-46.500;2023-05-10T01:25:37;21.05;;;11.60;;
21014;SDS011;19207;-23.482;-46.500;2023-05-10T01:34:07;22.35;;;10.80;;
21014;SDS011;19207;-23.482;-46.500;2023-05-10T01:40:23;18.67;;;10.00;;
21014;SDS011;19207;-23.482;-46.500;2023-05-10T01:43:18;28.75;;;13.68;;
21014;SDS011;19207;-23.482;-46.500;2023-05-10T01:46:07;22.17;;;11.18;;
21014;SDS011;19207;-23.482;-46.500;2023-05-10T01:48:57;22.17;;;10.63;;
21014;SDS011;19207;-23.482;-46.500;2023-05-10T01:51:47;18.48;;;8.98;;
21014;SDS011;19207;-23.482;-46.500;2023-05-10T01:54:38;18.92;;;8.57;;
21014;SDS011;19207;-23.482;-46.500;2023-05-10T01:57:25;18.58;;;8.32;;
21014;SDS011;19207;-23.482;-46.500;2023-05-10T02:00:13;20.42;;;9.00;;
21014;SDS011;19207;-23.482;-46.500;2023-05-10T02:03:00;16.20;;;8.25;;
21014;SDS011;19207;-23.482;-46.500;2023-05-10T02:05:48;14.50;;;8.32;;
21014;SDS011;19207;-23.482;-46.500;2023-05-10T02:08:35;16.67;;;8.50;;
21014;SDS011;19207;-23.482;-46.500;2023-05-10T02:11:23;16.87;;;8.52;;
21014;SDS011;19207;-23.482;-46.500;2023-05-10T02:14:11;16.77;;;7.45;;
21014;SDS011;19207;-23.482;-46.500;2023-05-10T02:16:58;19.30;;;8.38;;
21014;SDS011;19207;-23.482;-46.500;2023-05-10T02:19:46;16.85;;;7.65;;
21014;SDS011;19207;-23.482;-46.500;2023-05-10T02:22:33;18.35;;;7.70;;
21014;SDS011;19207;-23.482;-46.500;2023-05-10T02:25:21;10.90;;;6.70;;
21014;SDS011;19207;-23.482;-46.500;2023-05-10T02:28:08;15.23;;;7.45;;
21014;SDS011;19207;-23.482;-46.500;2023-05-10T02:30:56;21.83;;;8.38;;
21014;SDS011;19207;-23.482;-46.500;2023-05-10T02:33:44;14.10;;;7.25;;
21014;SDS011;19207;-23.482;-46.500;2023-05-10T02:36:32;26.50;;;10.80;;
21014;SDS011;19207;-23.482;-46.500;2023-05-10T02:39:19;27.80;;;12.15;;
21014;SDS011;19207;-23.482;-46.500;2023-05-10T02:42:07;26.15;;;10.60;;
21014;SDS011;19207;-23.482;-46.500;2023-05-10T02:44:55;24.42;;;10.90;;
21014;SDS011;19207;-23.482;-46.500;2023-05-10T02:47:43;21.02;;;10.70;;
21014;SDS011;19207;-23.482;-46.500;2023-05-10T02:50:30;35.13;;;12.37;;
21014;SDS011;19207;-23.482;-46.500;2023-05-10T02:53:23;42.47;;;17.30;;
21014;SDS011;19207;-23.482;-46.500;2023-05-10T02:56:28;62.85;;;21.50;;
21014;SDS011;19207;-23.482;-46.500;2023-05-10T02:59:17;61.42;;;20.90;;
21014;SDS011;19207;-23.482;-46.500;2023-05-10T03:02:04;75.40;;;24.48;;
21014;SDS011;19207;-23.482;-46.500;2023-05-10T03:04:51;92.40;;;28.58;;
21014;SDS011;19207;-23.482;-46.500;2023-05-10T03:07:38;88.85;;;31.12;;
21014;SDS011;19207;-23.482;-46.500;2023-05-10T03:10:26;95.47;;;32.67;;
21014;SDS011;19207;-23.482;-46.500;2023-05-10T03:13:25;77.53;;;27.00;;
21014;SDS011;19207;-23.482;-46.500;2023-05-10T03:16:16;75.95;;;26.05;;
21014;SDS011;19207;-23.482;-46.500;2023-05-10T03:19:11;67.03;;;26.10;;
21014;SDS011;19207;-23.482;-46.500;2023-05-10T03:21:59;69.22;;;25.48;;
21014;SDS011;19207;-23.482;-46.500;2023-05-10T03:24:50;69.65;;;25.73;;
21014;SDS011;19207;-23.482;-46.500;2023-05-10T03:27:39;58.30;;;20.60;;
21014;SDS011;19207;-23.482;-46.500;2023-05-10T03:30:26;53.65;;;20.00;;
21014;SDS011;19207;-23.482;-46.500;2023-05-10T03:33:14;49.08;;;18.02;;
21014;SDS011;19207;-23.482;-46.500;2023-05-10T03:36:01;48.78;;;18.33;;
21014;SDS011;19207;-23.482;-46.500;2023-05-10T03:38:48;41.20;;;16.70;;
21014;SDS011;19207;-23.482;-46.500;2023-05-10T03:41:34;47.13;;;17.65;;
21014;SDS011;19207;-23.482;-46.500;2023-05-10T03:44:21;34.05;;;14.80;;
21014;SDS011;19207;-23.482;-46.500;2023-05-10T03:47:08;35.08;;;13.98;;
21014;SDS011;19207;-23.482;-46.500;2023-05-10T03:49:55;31.83;;;12.77;;
21014;SDS011;19207;-23.482;-46.500;2023-05-10T03:52:43;28.15;;;11.80;;
21014;SDS011;19207;-23.482;-46.500;2023-05-10T03:55:31;23.30;;;10.40;;
21014;SDS011;19207;-23.482;-46.500;2023-05-10T03:58:21;20.08;;;9.48;;
21014;SDS011;19207;-23.482;-46.500;2023-05-10T04:01:08;24.85;;;10.30;;
21014;SDS011;19207;-23.482;-46.500;2023-05-10T04:03:55;25.48;;;10.93;;
21014;SDS011;19207;-23.482;-46.500;2023-05-10T04:06:43;25.73;;;11.52;;
21014;SDS011;19207;-23.482;-46.500;2023-05-10T04:09:30;31.87;;;14.32;;
21014;SDS011;19207;-23.482;-46.500;2023-05-10T04:12:17;34.72;;;13.73;;
21014;SDS011;19207;-23.482;-46.500;2023-05-10T04:15:04;30.80;;;13.02;;
21014;SDS011;19207;-23.482;-46.500;2023-05-10T04:17:52;28.55;;;12.77;;
21014;SDS011;19207;-23.482;-46.500;2023-05-10T04:20:38;30.33;;;13.40;;
21014;SDS011;19207;-23.482;-46.500;2023-05-10T04:23:26;39.50;;;13.82;;
21014;SDS011;19207;-23.482;-46.500;2023-05-10T04:26:13;39.17;;;14.70;;
21014;SDS011;19207;-23.482;-46.500;2023-05-10T04:29:01;36.05;;;13.55;;
21014;SDS011;19207;-23.482;-46.500;2023-05-10T04:31:48;38.95;;;14.25;;
21014;SDS011;19207;-23.482;-46.500;2023-05-10T04:34:36;29.33;;;11.70;;
21014;SDS011;19207;-23.482;-46.500;2023-05-10T04:37:23;35.60;;;11.90;;
21014;SDS011;19207;-23.482;-46.500;2023-05-10T04:40:10;32.25;;;12.05;;
21014;SDS011;19207;-23.482;-46.500;2023-05-10T04:42:57;32.92;;;11.98;;
21014;SDS011;19207;-23.482;-46.500;2023-05-10T04:45:44;33.38;;;10.95;;
21014;SDS011;19207;-23.482;-46.500;2023-05-10T04:48:31;26.23;;;10.23;;
21014;SDS011;19207;-23.482;-46.500;2023-05-10T04:51:19;27.45;;;9.73;;
21014;SDS011;19207;-23.482;-46.500;2023-05-10T04:54:06;24.83;;;9.80;;
21014;SDS011;19207;-23.482;-46.500;2023-05-10T04:56:54;24.10;;;9.57;;
21014;SDS011;19207;-23.482;-46.500;2023-05-10T04:59:41;21.98;;;9.43;;
21014;SDS011;19207;-23.482;-46.500;2023-05-10T05:02:28;21.15;;;8.85;;
21014;SDS011;19207;-23.482;-46.500;2023-05-10T05:05:17;17.62;;;8.10;;
21014;SDS011;19207;-23.482;-46.500;2023-05-10T05:08:03;20.65;;;8.07;;
21014;SDS011;19207;-23.482;-46.500;2023-05-10T05:10:50;17.65;;;7.45;;
21014;SDS011;19207;-23.482;-46.500;2023-05-10T05:13:37;17.20;;;6.95;;
21014;SDS011;19207;-23.482;-46.500;2023-05-10T05:16:24;20.88;;;6.72;;
21014;SDS011;19207;-23.482;-46.500;2023-05-10T05:19:12;14.43;;;6.18;;
21014;SDS011;19207;-23.482;-46.500;2023-05-10T05:21:59;14.25;;;6.40;;
21014;SDS011;19207;-23.482;-46.500;2023-05-10T05:24:46;12.98;;;6.10;;
21014;SDS011;19207;-23.482;-46.500;2023-05-10T05:27:32;13.55;;;5.55;;
21014;SDS011;19207;-23.482;-46.500;2023-05-10T05:30:19;12.65;;;5.87;;
21014;SDS011;19207;-23.482;-46.500;2023-05-10T05:33:06;15.07;;;6.25;;
21014;SDS011;19207;-23.482;-46.500;2023-05-10T05:35:53;14.52;;;6.40;;
21014;SDS011;19207;-23.482;-46.500;2023-05-10T05:38:40;15.82;;;6.20;;
21014;SDS011;19207;-23.482;-46.500;2023-05-10T05:41:27;13.27;;;6.00;;
21014;SDS011;19207;-23.482;-46.500;2023-05-10T05:44:13;15.35;;;5.68;;
21014;SDS011;19207;-23.482;-46.500;2023-05-10T05:47:00;13.20;;;5.90;;
21014;SDS011;19207;-23.482;-46.500;2023-05-10T05:49:47;11.85;;;5.55;;
21014;SDS011;19207;-23.482;-46.500;2023-05-10T05:52:34;13.73;;;6.78;;
21014;SDS011;19207;-23.482;-46.500;2023-05-10T05:55:22;18.95;;;7.57;;
21014;SDS011;19207;-23.482;-46.500;2023-05-10T05:58:10;19.10;;;7.50;;
21014;SDS011;19207;-23.482;-46.500;2023-05-10T06:00:57;18.65;;;7.25;;
21014;SDS011;19207;-23.482;-46.500;2023-05-10T06:03:44;13.43;;;6.05;;
21014;SDS011;19207;-23.482;-46.500;2023-05-10T06:06:31;11.32;;;6.03;;
21014;SDS011;19207;-23.482;-46.500;2023-05-10T06:09:17;15.18;;;6.22;;
21014;SDS011;19207;-23.482;-46.500;2023-05-10T06:12:05;14.57;;;7.07;;
21014;SDS011;19207;-23.482;-46.500;2023-05-10T06:14:51;12.00;;;6.25;;
21014;SDS011;19207;-23.482;-46.500;2023-05-10T06:17:38;22.10;;;6.60;;
21014;SDS011;19207;-23.482;-46.500;2023-05-10T06:20:25;15.15;;;6.60;;
21014;SDS011;19207;-23.482;-46.500;2023-05-10T06:23:12;22.13;;;6.60;;
21014;SDS011;19207;-23.482;-46.500;2023-05-10T06:25:59;17.37;;;5.72;;
21014;SDS011;19207;-23.482;-46.500;2023-05-10T06:28:46;15.40;;;5.72;;
21014;SDS011;19207;-23.482;-46.500;2023-05-10T06:31:33;12.98;;;5.45;;
21014;SDS011;19207;-23.482;-46.500;2023-05-10T06:34:21;10.93;;;5.80;;
21014;SDS011;19207;-23.482;-46.500;2023-05-10T06:37:07;9.63;;;5.12;;
21014;SDS011;19207;-23.482;-46.500;2023-05-10T06:39:54;8.88;;;5.15;;
21014;SDS011;19207;-23.482;-46.500;2023-05-10T06:42:41;10.95;;;5.20;;
21014;SDS011;19207;-23.482;-46.500;2023-05-10T06:45:29;9.55;;;5.05;;
21014;SDS011;19207;-23.482;-46.500;2023-05-10T06:48:16;8.77;;;5.20;;
21014;SDS011;19207;-23.482;-46.500;2023-05-10T06:51:04;10.50;;;5.75;;
21014;SDS011;19207;-23.482;-46.500;2023-05-10T06:53:50;11.12;;;6.07;;
21014;SDS011;19207;-23.482;-46.500;2023-05-10T06:56:38;13.50;;;5.68;;
21014;SDS011;19207;-23.482;-46.500;2023-05-10T06:59:26;12.95;;;5.60;;
21014;SDS011;19207;-23.482;-46.500;2023-05-10T07:02:13;12.18;;;5.72;;
21014;SDS011;19207;-23.482;-46.500;2023-05-10T07:05:00;12.20;;;5.43;;
21014;SDS011;19207;-23.482;-46.500;2023-05-10T07:07:47;11.52;;;5.90;;
21014;SDS011;19207;-23.482;-46.500;2023-05-10T07:10:33;15.55;;;5.95;;
21014;SDS011;19207;-23.482;-46.500;2023-05-10T07:13:20;15.75;;;7.37;;
21014;SDS011;19207;-23.482;-46.500;2023-05-10T07:16:08;15.82;;;7.12;;
21014;SDS011;19207;-23.482;-46.500;2023-05-10T07:18:55;14.40;;;7.25;;
21014;SDS011;19207;-23.482;-46.500;2023-05-10T07:21:42;13.07;;;7.03;;
21014;SDS011;19207;-23.482;-46.500;2023-05-10T07:24:29;15.77;;;7.65;;
21014;SDS011;19207;-23.482;-46.500;2023-05-10T07:27:16;17.35;;;6.80;;
21014;SDS011;19207;-23.482;-46.500;2023-05-10T07:30:03;12.65;;;6.45;;
21014;SDS011;19207;-23.482;-46.500;2023-05-10T07:32:49;13.95;;;5.90;;
21014;SDS011;19207;-23.482;-46.500;2023-05-10T07:35:37;11.27;;;5.75;;
21014;SDS011;19207;-23.482;-46.500;2023-05-10T07:38:23;13.18;;;6.05;;
21014;SDS011;19207;-23.482;-46.500;2023-05-10T07:41:11;10.43;;;6.28;;
21014;SDS011;19207;-23.482;-46.500;2023-05-10T07:43:58;15.38;;;7.20;;
21014;SDS011;19207;-23.482;-46.500;2023-05-10T07:46:45;26.90;;;7.05;;
21014;SDS011;19207;-23.482;-46.500;2023-05-10T07:49:32;14.45;;;6.60;;
21014;SDS011;19207;-23.482;-46.500;2023-05-10T07:52:19;9.23;;;5.72;;
21014;SDS011;19207;-23.482;-46.500;2023-05-10T07:55:06;10.55;;;5.62;;
21014;SDS011;19207;-23.482;-46.500;2023-05-10T07:57:53;13.27;;;6.12;;
21014;SDS011;19207;-23.482;-46.500;2023-05-10T08:00:40;8.68;;;5.47;;
21014;SDS011;19207;-23.482;-46.500;2023-05-10T08:03:27;10.38;;;5.45;;
21014;SDS011;19207;-23.482;-46.500;2023-05-10T08:06:14;13.38;;;4.90;;
21014;SDS011;19207;-23.482;-46.500;2023-05-10T08:09:01;11.90;;;5.62;;
21014;SDS011;19207;-23.482;-46.500;2023-05-10T08:11:48;7.03;;;4.93;;
21014;SDS011;19207;-23.482;-46.500;2023-05-10T08:14:35;7.62;;;5.10;;
21014;SDS011;19207;-23.482;-46.500;2023-05-10T08:17:22;7.80;;;4.87;;
21014;SDS011;19207;-23.482;-46.500;2023-05-10T08:20:09;8.25;;;5.40;;
21014;SDS011;19207;-23.482;-46.500;2023-05-10T08:22:58;9.00;;;5.22;;
21014;SDS011;19207;-23.482;-46.500;2023-05-10T08:25:45;10.38;;;5.65;;
21014;SDS011;19207;-23.482;-46.500;2023-05-10T08:28:32;9.88;;;5.30;;
21014;SDS011;19207;-23.482;-46.500;2023-05-10T08:31:19;10.95;;;5.47;;
21014;SDS011;19207;-23.482;-46.500;2023-05-10T08:34:05;18.25;;;5.82;;
21014;SDS011;19207;-23.482;-46.500;2023-05-10T08:36:53;9.25;;;5.80;;
21014;SDS011;19207;-23.482;-46.500;2023-05-10T08:39:40;12.15;;;4.45;;
21014;SDS011;19207;-23.482;-46.500;2023-05-10T08:42:27;6.45;;;3.95;;
21014;SDS011;19207;-23.482;-46.500;2023-05-10T08:45:15;6.00;;;3.95;;
21014;SDS011;19207;-23.482;-46.500;2023-05-10T08:48:01;9.02;;;3.65;;
21014;SDS011;19207;-23.482;-46.500;2023-05-10T08:50:48;9.82;;;3.92;;
21014;SDS011;19207;-23.482;-46.500;2023-05-10T08:53:40;9.20;;;4.00;;
21014;SDS011;19207;-23.482;-46.500;2023-05-10T08:56:27;10.45;;;3.95;;
21014;SDS011;19207;-23.482;-46.500;2023-05-10T08:59:14;6.43;;;3.80;;
21014;SDS011;19207;-23.482;-46.500;2023-05-10T09:02:02;4.43;;;2.65;;
21014;SDS011;19207;-23.482;-46.500;2023-05-10T09:04:50;3.83;;;2.67;;
21014;SDS011;19207;-23.482;-46.500;2023-05-10T09:07:37;4.05;;;2.45;;
21014;SDS011;19207;-23.482;-46.500;2023-05-10T09:10:24;3.42;;;2.78;;
21014;SDS011;19207;-23.482;-46.500;2023-05-10T09:13:13;7.12;;;3.58;;
21014;SDS011;19207;-23.482;-46.500;2023-05-10T09:16:00;4.00;;;3.58;;
21014;SDS011;19207;-23.482;-46.500;2023-05-10T09:18:48;4.57;;;3.50;;
21014;SDS011;19207;-23.482;-46.500;2023-05-10T09:21:35;4.47;;;3.30;;
21014;SDS011;19207;-23.482;-46.500;2023-05-10T09:24:25;19.90;;;12.00;;
21014;SDS011;19207;-23.482;-46.500;2023-05-10T09:27:12;22.48;;;12.82;;
21014;SDS011;19207;-23.482;-46.500;2023-05-10T09:29:59;9.35;;;6.15;;
21014;SDS011;19207;-23.482;-46.500;2023-05-10T09:32:47;9.98;;;6.20;;
21014;SDS011;19207;-23.482;-46.500;2023-05-10T09:35:35;8.15;;;4.57;;
21014;SDS011;19207;-23.482;-46.500;2023-05-10T09:38:22;8.93;;;4.82;;
21014;SDS011;19207;-23.482;-46.500;2023-05-10T09:41:15;9.05;;;4.72;;
21014;SDS011;19207;-23.482;-46.500;2023-05-10T09:44:02;8.50;;;4.50;;
21014;SDS011;19207;-23.482;-46.500;2023-05-10T09:46:49;6.25;;;3.58;;
21014;SDS011;19207;-23.482;-46.500;2023-05-10T09:49:37;6.50;;;3.35;;
21014;SDS011;19207;-23.482;-46.500;2023-05-10T09:52:24;8.13;;;3.10;;
21014;SDS011;19207;-23.482;-46.500;2023-05-10T09:55:12;6.03;;;2.97;;
21014;SDS011;19207;-23.482;-46.500;2023-05-10T09:57:59;5.22;;;2.80;;
21014;SDS011;19207;-23.482;-46.500;2023-05-10T10:00:47;4.60;;;3.20;;
21014;SDS011;19207;-23.482;-46.500;2023-05-10T10:03:41;5.00;;;2.60;;
21014;SDS011;19207;-23.482;-46.500;2023-05-10T10:06:29;3.58;;;2.70;;
21014;SDS011;19207;-23.482;-46.500;2023-05-10T10:09:15;7.43;;;2.90;;
21014;SDS011;19207;-23.482;-46.500;2023-05-10T10:12:03;6.07;;;2.83;;
21014;SDS011;19207;-23.482;-46.500;2023-05-10T10:14:50;9.45;;;2.97;;
21014;SDS011;19207;-23.482;-46.500;2023-05-10T10:17:38;9.02;;;3.37;;
21014;SDS011;19207;-23.482;-46.500;2023-05-10T10:20:25;14.50;;;3.40;;
21014;SDS011;19207;-23.482;-46.500;2023-05-10T10:23:13;5.80;;;3.95;;
21014;SDS011;19207;-23.482;-46.500;2023-05-10T10:26:00;5.15;;;3.37;;
21014;SDS011;19207;-23.482;-46.500;2023-05-10T10:29:10;5.93;;;3.75;;
21014;SDS011;19207;-23.482;-46.500;2023-05-10T10:34:49;8.07;;;4.78;;
21014;SDS011;19207;-23.482;-46.500;2023-05-10T10:37:43;6.75;;;4.07;;
21014;SDS011;19207;-23.482;-46.500;2023-05-10T10:40:30;7.72;;;4.60;;
21014;SDS011;19207;-23.482;-46.500;2023-05-10T10:43:25;10.68;;;4.60;;
21014;SDS011;19207;-23.482;-46.500;2023-05-10T10:46:12;12.43;;;4.93;;
21014;SDS011;19207;-23.482;-46.500;2023-05-10T10:49:09;7.90;;;4.75;;
21014;SDS011;19207;-23.482;-46.500;2023-05-10T10:52:15;6.90;;;4.65;;
21014;SDS011;19207;-23.482;-46.500;2023-05-10T10:55:03;10.73;;;5.05;;
21014;SDS011;19207;-23.482;-46.500;2023-05-10T10:57:53;6.03;;;4.07;;
21014;SDS011;19207;-23.482;-46.500;2023-05-10T11:00:45;6.28;;;4.95;;
21014;SDS011;19207;-23.482;-46.500;2023-05-10T11:03:32;10.75;;;5.43;;
21014;SDS011;19207;-23.482;-46.500;2023-05-10T11:06:28;8.20;;;4.87;;
21014;SDS011;19207;-23.482;-46.500;2023-05-10T11:09:17;4.65;;;3.70;;
21014;SDS011;19207;-23.482;-46.500;2023-05-10T11:12:07;8.07;;;3.60;;
21014;SDS011;19207;-23.482;-46.500;2023-05-10T11:14:56;4.85;;;3.70;;
21014;SDS011;19207;-23.482;-46.500;2023-05-10T11:17:44;4.82;;;3.33;;
21014;SDS011;19207;-23.482;-46.500;2023-05-10T11:20:38;6.50;;;4.82;;
21014;SDS011;19207;-23.482;-46.500;2023-05-10T11:23:32;5.12;;;3.62;;
21014;SDS011;19207;-23.482;-46.500;2023-05-10T11:26:19;5.82;;;3.95;;
21014;SDS011;19207;-23.482;-46.500;2023-05-10T11:29:09;4.07;;;3.10;;
21014;SDS011;19207;-23.482;-46.500;2023-05-10T11:31:58;8.40;;;3.83;;
21014;SDS011;19207;-23.482;-46.500;2023-05-10T11:34:46;4.05;;;2.90;;
21014;SDS011;19207;-23.482;-46.500;2023-05-10T11:37:33;8.07;;;3.60;;
21014;SDS011;19207;-23.482;-46.500;2023-05-10T11:40:23;5.85;;;3.97;;
21014;SDS011;19207;-23.482;-46.500;2023-05-10T11:43:10;6.05;;;4.15;;
21014;SDS011;19207;-23.482;-46.500;2023-05-10T11:45:57;5.00;;;3.37;;
21014;SDS011;19207;-23.482;-46.500;2023-05-10T11:48:43;5.32;;;3.92;;
21014;SDS011;19207;-23.482;-46.500;2023-05-10T11:51:32;6.57;;;4.00;;
21014;SDS011;19207;-23.482;-46.500;2023-05-10T11:54:20;5.60;;;3.87;;
21014;SDS011;19207;-23.482;-46.500;2023-05-10T11:57:07;7.60;;;4.50;;
21014;SDS011;19207;-23.482;-46.500;2023-05-10T11:59:56;4.22;;;3.70;;
21014;SDS011;19207;-23.482;-46.500;2023-05-10T12:02:43;4.32;;;3.60;;
21014;SDS011;19207;-23.482;-46.500;2023-05-10T12:05:31;4.65;;;3.50;;
21014;SDS011;19207;-23.482;-46.500;2023-05-10T12:08:24;5.95;;;3.62;;
21014;SDS011;19207;-23.482;-46.500;2023-05-10T12:11:12;5.15;;;4.22;;
21014;SDS011;19207;-23.482;-46.500;2023-05-10T12:14:03;6.03;;;4.20;;
21014;SDS011;19207;-23.482;-46.500;2023-05-10T12:16:51;4.20;;;3.80;;
21014;SDS011;19207;-23.482;-46.500;2023-05-10T12:19:38;4.15;;;3.60;;
21014;SDS011;19207;-23.482;-46.500;2023-05-10T12:22:25;6.78;;;3.70;;
21014;SDS011;19207;-23.482;-46.500;2023-05-10T12:25:11;4.68;;;3.50;;
21014;SDS011;19207;-23.482;-46.500;2023-05-10T12:27:58;4.55;;;3.70;;
21014;SDS011;19207;-23.482;-46.500;2023-05-10T12:30:48;4.72;;;3.40;;
21014;SDS011;19207;-23.482;-46.500;2023-05-10T12:33:38;5.95;;;3.60;;
21014;SDS011;19207;-23.482;-46.500;2023-05-10T12:36:27;4.87;;;4.37;;
21014;SDS011;19207;-23.482;-46.500;2023-05-10T12:39:14;4.80;;;3.60;;
21014;SDS011;19207;-23.482;-46.500;2023-05-10T12:42:01;10.20;;;8.07;;
21014;SDS011;19207;-23.482;-46.500;2023-05-10T12:44:47;6.50;;;4.30;;
21014;SDS011;19207;-23.482;-46.500;2023-05-10T12:47:34;6.03;;;4.40;;
21014;SDS011;19207;-23.482;-46.500;2023-05-10T12:50:21;8.05;;;4.60;;
21014;SDS011;19207;-23.482;-46.500;2023-05-10T12:53:09;4.90;;;4.05;;
21014;SDS011;19207;-23.482;-46.500;2023-05-10T12:55:55;6.20;;;3.90;;
21014;SDS011;19207;-23.482;-46.500;2023-05-10T12:58:42;5.47;;;4.07;;
21014;SDS011;19207;-23.482;-46.500;2023-05-10T13:01:33;4.18;;;3.70;;
21014;SDS011;19207;-23.482;-46.500;2023-05-10T13:04:20;8.82;;;8.00;;
21014;SDS011;19207;-23.482;-46.500;2023-05-10T13:07:07;8.63;;;6.55;;
21014;SDS011;19207;-23.482;-46.500;2023-05-10T13:09:55;8.65;;;5.30;;
21014;SDS011;19207;-23.482;-46.500;2023-05-10T13:12:42;13.52;;;6.40;;
21014;SDS011;19207;-23.482;-46.500;2023-05-10T13:15:28;9.15;;;6.28;;
21014;SDS011;19207;-23.482;-46.500;2023-05-10T13:18:15;12.00;;;6.43;;
21014;SDS011;19207;-23.482;-46.500;2023-05-10T13:21:01;12.57;;;5.80;;
21014;SDS011;19207;-23.482;-46.500;2023-05-10T13:27:44;7.12;;;4.82;;
21014;SDS011;19207;-23.482;-46.500;2023-05-10T13:30:30;7.57;;;4.40;;
21014;SDS011;19207;-23.482;-46.500;2023-05-10T13:33:18;7.82;;;4.00;;
21014;SDS011;19207;-23.482;-46.500;2023-05-10T13:36:05;7.40;;;4.40;;
21014;SDS011;19207;-23.482;-46.500;2023-05-10T13:38:52;6.05;;;3.58;;
21014;SDS011;19207;-23.482;-46.500;2023-05-10T13:41:39;12.23;;;4.50;;
21014;SDS011;19207;-23.482;-46.500;2023-05-10T13:44:26;5.20;;;3.67;;
21014;SDS011;19207;-23.482;-46.500;2023-05-10T13:47:13;10.23;;;4.47;;
21014;SDS011;19207;-23.482;-46.500;2023-05-10T13:50:00;13.43;;;4.00;;
21014;SDS011;19207;-23.482;-46.500;2023-05-10T13:52:47;5.32;;;4.00;;
21014;SDS011;19207;-23.482;-46.500;2023-05-10T13:55:33;8.57;;;4.20;;
21014;SDS011;19207;-23.482;-46.500;2023-05-10T13:58:20;13.15;;;3.45;;
21014;SDS011;19207;-23.482;-46.500;2023-05-10T14:01:07;7.18;;;3.50;;
21014;SDS011;19207;-23.482;-46.500;2023-05-10T14:03:54;6.50;;;3.37;;
21014;SDS011;19207;-23.482;-46.500;2023-05-10T14:06:42;8.93;;;4.12;;
21014;SDS011;19207;-23.482;-46.500;2023-05-10T14:09:29;6.30;;;4.00;;
21014;SDS011;19207;-23.482;-46.500;2023-05-10T14:12:17;8.75;;;4.68;;
21014;SDS011;19207;-23.482;-46.500;2023-05-10T14:15:04;11.00;;;6.55;;
21014;SDS011;19207;-23.482;-46.500;2023-05-10T14:17:51;7.53;;;4.62;;
21014;SDS011;19207;-23.482;-46.500;2023-05-10T14:20:38;9.82;;;5.00;;
21014;SDS011;19207;-23.482;-46.500;2023-05-10T14:23:26;10.07;;;5.50;;
21014;SDS011;19207;-23.482;-46.500;2023-05-10T14:26:13;11.15;;;5.07;;
21014;SDS011;19207;-23.482;-46.500;2023-05-10T14:29:00;7.35;;;4.68;;
21014;SDS011;19207;-23.482;-46.500;2023-05-10T14:31:47;6.10;;;4.32;;
21014;SDS011;19207;-23.482;-46.500;2023-05-10T14:34:34;9.55;;;5.72;;
21014;SDS011;19207;-23.482;-46.500;2023-05-10T14:37:20;4.53;;;3.67;;
21014;SDS011;19207;-23.482;-46.500;2023-05-10T14:40:07;4.35;;;3.22;;
21014;SDS011;19207;-23.482;-46.500;2023-05-10T14:42:54;4.30;;;3.20;;
21014;SDS011;19207;-23.482;-46.500;2023-05-10T14:45:41;6.10;;;3.10;;
21014;SDS011;19207;-23.482;-46.500;2023-05-10T14:48:28;3.30;;;2.70;;
21014;SDS011;19207;-23.482;-46.500;2023-05-10T14:51:15;4.68;;;2.97;;
21014;SDS011;19207;-23.482;-46.500;2023-05-10T14:54:02;6.60;;;4.10;;
21014;SDS011;19207;-23.482;-46.500;2023-05-10T14:56:48;5.07;;;2.78;;
21014;SDS011;19207;-23.482;-46.500;2023-05-10T14:59:35;5.65;;;2.75;;
21014;SDS011;19207;-23.482;-46.500;2023-05-10T15:02:22;4.72;;;2.30;;
21014;SDS011;19207;-23.482;-46.500;2023-05-10T15:05:10;8.55;;;2.60;;
21014;SDS011;19207;-23.482;-46.500;2023-05-10T15:07:56;5.60;;;3.62;;
21014;SDS011;19207;-23.482;-46.500;2023-05-10T15:10:43;8.25;;;3.75;;
21014;SDS011;19207;-23.482;-46.500;2023-05-10T15:13:30;13.35;;;4.03;;
21014;SDS011;19207;-23.482;-46.500;2023-05-10T15:16:17;8.73;;;3.70;;
21014;SDS011;19207;-23.482;-46.500;2023-05-10T15:19:04;5.97;;;4.00;;
21014;SDS011;19207;-23.482;-46.500;2023-05-10T15:21:51;5.53;;;3.20;;
21014;SDS011;19207;-23.482;-46.500;2023-05-10T15:24:38;6.40;;;3.40;;
21014;SDS011;19207;-23.482;-46.500;2023-05-10T15:27:25;6.12;;;4.07;;
21014;SDS011;19207;-23.482;-46.500;2023-05-10T15:30:12;4.07;;;2.40;;
21014;SDS011;19207;-23.482;-46.500;2023-05-10T15:32:59;4.15;;;2.70;;
21014;SDS011;19207;-23.482;-46.500;2023-05-10T15:35:46;5.00;;;2.50;;
21014;SDS011;19207;-23.482;-46.500;2023-05-10T15:38:33;3.35;;;2.37;;
21014;SDS011;19207;-23.482;-46.500;2023-05-10T15:41:20;6.70;;;2.45;;
21014;SDS011;19207;-23.482;-46.500;2023-05-10T15:44:06;4.75;;;2.87;;
21014;SDS011;19207;-23.482;-46.500;2023-05-10T15:46:53;9.15;;;4.05;;
21014;SDS011;19207;-23.482;-46.500;2023-05-10T15:49:40;6.65;;;2.90;;
21014;SDS011;19207;-23.482;-46.500;2023-05-10T15:52:26;5.82;;;3.53;;
21014;SDS011;19207;-23.482;-46.500;2023-05-10T15:55:13;5.78;;;3.33;;
21014;SDS011;19207;-23.482;-46.500;2023-05-10T15:57:59;7.30;;;3.20;;
21014;SDS011;19207;-23.482;-46.500;2023-05-10T16:00:46;8.45;;;5.65;;
21014;SDS011;19207;-23.482;-46.500;2023-05-10T16:03:33;6.60;;;3.08;;
21014;SDS011;19207;-23.482;-46.500;2023-05-10T16:06:20;6.82;;;4.20;;
21014;SDS011;19207;-23.482;-46.500;2023-05-10T16:09:08;5.12;;;2.72;;
21014;SDS011;19207;-23.482;-46.500;2023-05-10T16:11:54;4.47;;;2.90;;
21014;SDS011;19207;-23.482;-46.500;2023-05-10T16:14:42;10.52;;;4.45;;